sensor_id;sensor_type;location;lat;lon;timestamp;pressure;altitude;pressure_sealevel;temperature;humidity
43553;BME280;29153;42.696;23.218;2023-04-08T00:00:42;94520.37;;;3.24;96.39
43553;BME280;29153;42.696;23.218;2023-04-08T00:03:10;94515.02;;;3.19;96.52
43553;BME280;29153;42.696;23.218;2023-04-08T00:05:37;94523.71;;;3.22;96.56
43553;BME280;29153;42.696;23.218;2023-04-08T00:08:05;94516.11;;;3.20;96.36
43553;BME280;29153;42.696;23.218;2023-04-08T00:10:33;94516.88;;;3.21;96.56
43553;BME280;29153;42.696;23.218;2023-04-08T00:13:01;94517.28;;;3.27;96.38
43553;BME280;29153;42.696;23.218;2023-04-08T00:15:29;94518.05;;;3.25;95.99
43553;BME280;29153;42.696;23.218;2023-04-08T00:17:57;94525.60;;;3.24;95.96
43553;BME280;29153;42.696;23.218;2023-04-08T00:20:25;94523.84;;;3.15;96.09
43553;BME280;29153;42.696;23.218;2023-04-08T00:22:52;94515.36;;;3.11;96.35
43553;BME280;29153;42.696;23.218;2023-04-08T00:25:20;94514.39;;;3.03;96.92
43553;BME280;29153;42.696;23.218;2023-04-08T00:27:47;94467.61;;;2.71;97.18
43553;BME280;29153;42.696;23.218;2023-04-08T00:30:15;94514.44;;;3.05;97.20
43553;BME280;29153;42.696;23.218;2023-04-08T00:32:42;94510.73;;;3.04;96.94
43553;BME280;29153;42.696;23.218;2023-04-08T00:35:10;94504.48;;;3.05;96.83
43553;BME280;29153;42.696;23.218;2023-04-08T00:37:38;94510.63;;;2.99;96.85
43553;BME280;29153;42.696;23.218;2023-04-08T00:40:06;94507.84;;;3.03;96.95
43553;BME280;29153;42.696;23.218;2023-04-08T00:42:34;94481.27;;;2.85;96.44
43553;BME280;29153;42.696;23.218;2023-04-08T00:45:02;94516.38;;;2.87;97.32
43553;BME280;29153;42.696;23.218;2023-04-08T00:47:30;94512.59;;;2.83;97.98
43553;BME280;29153;42.696;23.218;2023-04-08T00:49:57;94518.45;;;2.87;98.28
43553;BME280;29153;42.696;23.218;2023-04-08T00:52:25;94518.48;;;2.99;97.90
43553;BME280;29153;42.696;23.218;2023-04-08T00:54:53;94519.04;;;3.01;97.54
43553;BME280;29153;42.696;23.218;2023-04-08T00:57:21;94518.58;;;3.04;97.44
43553;BME280;29153;42.696;23.218;2023-04-08T00:59:49;94513.92;;;2.94;97.71
43553;BME280;29153;42.696;23.218;2023-04-08T01:05:01;94519.38;;;2.93;98.35
43553;BME280;29153;42.696;23.218;2023-04-08T01:07:37;94520.22;;;2.96;98.20
43553;BME280;29153;42.696;23.218;2023-04-08T01:10:17;94517.27;;;2.92;97.79
43553;BME280;29153;42.696;23.218;2023-04-08T01:12:51;94528.23;;;2.92;97.63
43553;BME280;29153;42.696;23.218;2023-04-08T01:15:18;94527.94;;;2.79;98.04
43553;BME280;29153;42.696;23.218;2023-04-08T01:17:47;94527.27;;;2.84;98.02
43553;BME280;29153;42.696;23.218;2023-04-08T01:20:17;94533.59;;;2.85;97.89
43553;BME280;29153;42.696;23.218;2023-04-08T01:25:37;94529.66;;;2.73;98.09
43553;BME280;29153;42.696;23.218;2023-04-08T01:28:10;94530.08;;;2.70;98.44
43553;BME280;29153;42.696;23.218;2023-04-08T01:30:40;94527.47;;;2.70;98.65
43553;BME280;29153;42.696;23.218;2023-04-08T01:33:09;94529.48;;;2.78;98.67
43553;BME280;29153;42.696;23.218;2023-04-08T01:35:37;94529.59;;;2.83;98.32
43553;BME280;29153;42.696;23.218;2023-04-08T01:38:08;94528.27;;;2.71;98.40
43553;BME280;29153;42.696;23.218;2023-04-08T01:40:37;94528.97;;;2.57;99.23
43553;BME280;29153;42.696;23.218;2023-04-08T01:43:09;94535.11;;;2.51;99.60
43553;BME280;29153;42.696;23.218;2023-04-08T01:45:37;94532.30;;;2.64;99.67
43553;BME280;29153;42.696;23.218;2023-04-08T01:48:05;94531.47;;;2.73;99.24
43553;BME280;29153;42.696;23.218;2023-04-08T01:50:34;94538.05;;;2.75;98.79
43553;BME280;29153;42.696;23.218;2023-04-08T01:53:03;94538.05;;;2.75;98.68
43553;BME280;29153;42.696;23.218;2023-04-08T01:55:32;94535.31;;;2.70;99.07
43553;BME280;29153;42.696;23.218;2023-04-08T01:58:03;94537.17;;;2.82;98.99
43553;BME280;29153;42.696;23.218;2023-04-08T02:00:33;94542.60;;;2.68;99.13
43553;BME280;29153;42.696;23.218;2023-04-08T02:03:02;94547.05;;;2.80;99.36
43553;BME280;29153;42.696;23.218;2023-04-08T02:05:31;94547.32;;;2.69;99.35
43553;BME280;29153;42.696;23.218;2023-04-08T02:07:59;94546.52;;;2.68;99.64
43553;BME280;29153;42.696;23.218;2023-04-08T02:10:26;94552.26;;;2.68;99.88
43553;BME280;29153;42.696;23.218;2023-04-08T02:12:54;94553.11;;;2.71;100.00
43553;BME280;29153;42.696;23.218;2023-04-08T02:15:22;94553.45;;;2.74;100.00
43553;BME280;29153;42.696;23.218;2023-04-08T02:17:58;94560.42;;;2.81;100.00
43553;BME280;29153;42.696;23.218;2023-04-08T02:20:27;94559.57;;;2.78;99.73
43553;BME280;29153;42.696;23.218;2023-04-08T02:23:00;94564.50;;;2.77;100.00
43553;BME280;29153;42.696;23.218;2023-04-08T02:25:29;94554.34;;;2.78;100.00
43553;BME280;29153;42.696;23.218;2023-04-08T02:27:59;94563.33;;;2.82;100.00
43553;BME280;29153;42.696;23.218;2023-04-08T02:30:29;94561.86;;;2.86;100.00
43553;BME280;29153;42.696;23.218;2023-04-08T02:32:58;94557.77;;;2.90;99.85
43553;BME280;29153;42.696;23.218;2023-04-08T02:35:28;94556.70;;;2.79;100.00
43553;BME280;29153;42.696;23.218;2023-04-08T02:37:56;94560.25;;;2.85;100.00
43553;BME280;29153;42.696;23.218;2023-04-08T02:40:29;94557.85;;;2.83;100.00
43553;BME280;29153;42.696;23.218;2023-04-08T02:42:59;94559.33;;;2.79;100.00
43553;BME280;29153;42.696;23.218;2023-04-08T02:45:32;94563.49;;;2.78;100.00
43553;BME280;29153;42.696;23.218;2023-04-08T02:48:00;94557.51;;;2.80;100.00
43553;BME280;29153;42.696;23.218;2023-04-08T02:50:30;94564.84;;;2.80;100.00
43553;BME280;29153;42.696;23.218;2023-04-08T02:52:57;94554.81;;;2.86;100.00
43553;BME280;29153;42.696;23.218;2023-04-08T02:55:25;94552.30;;;2.91;100.00
43553;BME280;29153;42.696;23.218;2023-04-08T02:57:53;94552.25;;;3.00;99.87
43553;BME280;29153;42.696;23.218;2023-04-08T03:00:20;94554.44;;;3.03;99.32
43553;BME280;29153;42.696;23.218;2023-04-08T03:02:48;94551.62;;;2.96;99.41
43553;BME280;29153;42.696;23.218;2023-04-08T03:05:15;94552.66;;;2.95;99.69
43553;BME280;29153;42.696;23.218;2023-04-08T03:07:43;94557.02;;;2.92;99.76
43553;BME280;29153;42.696;23.218;2023-04-08T03:10:11;94558.81;;;2.80;100.00
43553;BME280;29153;42.696;23.218;2023-04-08T03:12:39;94556.97;;;2.89;100.00
43553;BME280;29153;42.696;23.218;2023-04-08T03:15:07;94558.45;;;2.97;99.98
43553;BME280;29153;42.696;23.218;2023-04-08T03:17:34;94557.60;;;2.94;100.00
43553;BME280;29153;42.696;23.218;2023-04-08T03:20:02;94557.59;;;2.82;100.00
43553;BME280;29153;42.696;23.218;2023-04-08T03:22:33;94556.30;;;2.94;100.00
43553;BME280;29153;42.696;23.218;2023-04-08T03:25:00;94554.66;;;3.02;100.00
43553;BME280;29153;42.696;23.218;2023-04-08T03:27:28;94520.38;;;2.80;99.92
43553;BME280;29153;42.696;23.218;2023-04-08T03:29:56;94547.43;;;2.95;99.80
43553;BME280;29153;42.696;23.218;2023-04-08T03:32:24;94546.97;;;2.98;99.86
43553;BME280;29153;42.696;23.218;2023-04-08T03:34:51;94549.67;;;2.91;100.00
43553;BME280;29153;42.696;23.218;2023-04-08T03:37:19;94551.69;;;2.87;100.00
43553;BME280;29153;42.696;23.218;2023-04-08T03:39:47;94555.15;;;2.90;100.00
43553;BME280;29153;42.696;23.218;2023-04-08T03:42:14;94560.27;;;2.96;100.00
43553;BME280;29153;42.696;23.218;2023-04-08T03:44:42;94552.66;;;2.95;100.00
43553;BME280;29153;42.696;23.218;2023-04-08T03:47:09;94552.37;;;2.94;99.89
43553;BME280;29153;42.696;23.218;2023-04-08T03:49:37;94555.55;;;2.96;99.77
43553;BME280;29153;42.696;23.218;2023-04-08T03:52:05;94559.37;;;2.91;100.00
43553;BME280;29153;42.696;23.218;2023-04-08T03:54:32;94561.87;;;2.97;99.67
43553;BME280;29153;42.696;23.218;2023-04-08T03:57:00;94559.92;;;2.93;100.00
43553;BME280;29153;42.696;23.218;2023-04-08T03:59:28;94561.77;;;2.83;100.00
43553;BME280;29153;42.696;23.218;2023-04-08T04:01:55;94561.27;;;2.84;100.00
43553;BME280;29153;42.696;23.218;2023-04-08T04:04:23;94558.62;;;2.93;100.00
43553;BME280;29153;42.696;23.218;2023-04-08T04:06:51;94549.92;;;2.90;100.00
43553;BME280;29153;42.696;23.218;2023-04-08T04:09:18;94559.29;;;2.88;100.00
43553;BME280;29153;42.696;23.218;2023-04-08T04:11:46;94554.89;;;2.80;100.00
43553;BME280;29153;42.696;23.218;2023-04-08T04:14:13;94561.27;;;2.84;100.00
43553;BME280;29153;42.696;23.218;2023-04-08T04:16:41;94562.28;;;2.83;100.00
43553;BME280;29153;42.696;23.218;2023-04-08T04:19:09;94561.44;;;2.80;100.00
43553;BME280;29153;42.696;23.218;2023-04-08T04:21:38;94567.81;;;2.84;100.00
43553;BME280;29153;42.696;23.218;2023-04-08T04:24:05;94566.47;;;2.93;100.00
43553;BME280;29153;42.696;23.218;2023-04-08T04:26:33;94568.92;;;2.97;100.00
43553;BME280;29153;42.696;23.218;2023-04-08T04:29:00;94565.75;;;2.95;100.00
43553;BME280;29153;42.696;23.218;2023-04-08T04:31:28;94573.17;;;2.89;100.00
43553;BME280;29153;42.696;23.218;2023-04-08T04:33:56;94571.36;;;2.89;100.00
43553;BME280;29153;42.696;23.218;2023-04-08T04:36:23;94574.02;;;2.92;100.00
43553;BME280;29153;42.696;23.218;2023-04-08T04:38:51;94573.94;;;2.98;100.00
43553;BME280;29153;42.696;23.218;2023-04-08T04:41:19;94575.84;;;3.12;100.00
43553;BME280;29153;42.696;23.218;2023-04-08T04:43:47;94572.98;;;3.13;100.00
43553;BME280;29153;42.696;23.218;2023-04-08T04:46:14;94574.16;;;3.08;100.00
43553;BME280;29153;42.696;23.218;2023-04-08T04:48:42;94573.61;;;3.18;100.00
43553;BME280;29153;42.696;23.218;2023-04-08T04:51:09;94570.39;;;3.25;100.00
43553;BME280;29153;42.696;23.218;2023-04-08T04:53:37;94574.92;;;3.30;100.00
43553;BME280;29153;42.696;23.218;2023-04-08T04:56:05;94578.62;;;3.31;100.00
43553;BME280;29153;42.696;23.218;2023-04-08T04:58:32;94581.49;;;3.41;100.00
43553;BME280;29153;42.696;23.218;2023-04-08T05:01:00;94581.03;;;3.44;100.00
43553;BME280;29153;42.696;23.218;2023-04-08T05:03:28;94577.55;;;3.53;99.95
43553;BME280;29153;42.696;23.218;2023-04-08T05:05:55;94579.20;;;3.56;99.38
43553;BME280;29153;42.696;23.218;2023-04-08T05:08:23;94581.77;;;3.65;98.64
43553;BME280;29153;42.696;23.218;2023-04-08T05:10:51;94579.38;;;3.76;97.31
43553;BME280;29153;42.696;23.218;2023-04-08T05:13:20;94581.68;;;3.86;96.60
43553;BME280;29153;42.696;23.218;2023-04-08T05:15:47;94582.30;;;3.91;95.56
43553;BME280;29153;42.696;23.218;2023-04-08T05:18:15;94580.45;;;4.03;95.27
43553;BME280;29153;42.696;23.218;2023-04-08T05:20:43;94591.27;;;4.06;95.30
43553;BME280;29153;42.696;23.218;2023-04-08T05:23:10;94583.11;;;4.17;95.12
43553;BME280;29153;42.696;23.218;2023-04-08T05:25:38;94582.52;;;4.27;94.25
43553;BME280;29153;42.696;23.218;2023-04-08T05:28:05;94576.56;;;4.45;93.41
43553;BME280;29153;42.696;23.218;2023-04-08T05:30:33;94580.22;;;4.58;92.64
43553;BME280;29153;42.696;23.218;2023-04-08T05:33:01;94583.33;;;4.70;91.92
43553;BME280;29153;42.696;23.218;2023-04-08T05:35:28;94582.56;;;4.86;90.54
43553;BME280;29153;42.696;23.218;2023-04-08T05:37:56;94580.95;;;4.99;89.36
43553;BME280;29153;42.696;23.218;2023-04-08T05:40:23;94581.84;;;5.21;89.32
43553;BME280;29153;42.696;23.218;2023-04-08T05:42:51;94586.50;;;5.33;88.33
43553;BME280;29153;42.696;23.218;2023-04-08T05:45:19;94588.52;;;5.45;87.14
43553;BME280;29153;42.696;23.218;2023-04-08T05:47:46;94587.58;;;5.52;85.46
43553;BME280;29153;42.696;23.218;2023-04-08T05:50:15;94595.30;;;5.61;82.57
43553;BME280;29153;42.696;23.218;2023-04-08T05:52:43;94590.13;;;5.66;81.80
43553;BME280;29153;42.696;23.218;2023-04-08T05:55:12;94590.70;;;5.68;81.03
43553;BME280;29153;42.696;23.218;2023-04-08T05:57:41;94586.27;;;5.87;80.14
43553;BME280;29153;42.696;23.218;2023-04-08T06:00:09;94583.59;;;5.32;81.85
43553;BME280;29153;42.696;23.218;2023-04-08T06:02:37;94586.31;;;5.57;82.18
43553;BME280;29153;42.696;23.218;2023-04-08T06:05:05;94582.89;;;5.73;82.59
43553;BME280;29153;42.696;23.218;2023-04-08T06:07:33;94580.16;;;5.84;82.18
43553;BME280;29153;42.696;23.218;2023-04-08T06:10:01;94577.34;;;5.88;82.52
43553;BME280;29153;42.696;23.218;2023-04-08T06:12:30;94581.81;;;6.07;80.81
43553;BME280;29153;42.696;23.218;2023-04-08T06:14:58;94576.88;;;6.13;81.55
43553;BME280;29153;42.696;23.218;2023-04-08T06:17:25;94581.69;;;6.00;80.42
43553;BME280;29153;42.696;23.218;2023-04-08T06:19:53;94583.89;;;6.08;79.80
43553;BME280;29153;42.696;23.218;2023-04-08T06:22:21;94587.48;;;6.21;79.99
43553;BME280;29153;42.696;23.218;2023-04-08T06:24:48;94579.86;;;6.19;79.70
43553;BME280;29153;42.696;23.218;2023-04-08T06:27:16;94583.02;;;6.21;79.32
43553;BME280;29153;42.696;23.218;2023-04-08T06:29:43;94583.09;;;6.26;79.93
43553;BME280;29153;42.696;23.218;2023-04-08T06:32:11;94582.72;;;6.39;80.66
43553;BME280;29153;42.696;23.218;2023-04-08T06:34:39;94588.42;;;6.56;78.57
43553;BME280;29153;42.696;23.218;2023-04-08T06:37:07;94594.41;;;6.73;78.58
43553;BME280;29153;42.696;23.218;2023-04-08T06:39:35;94599.28;;;6.86;77.69
43553;BME280;29153;42.696;23.218;2023-04-08T06:42:02;94598.81;;;6.92;76.97
43553;BME280;29153;42.696;23.218;2023-04-08T06:44:30;94597.55;;;6.97;75.99
43553;BME280;29153;42.696;23.218;2023-04-08T06:46:57;94602.91;;;7.07;75.73
43553;BME280;29153;42.696;23.218;2023-04-08T06:49:25;94591.95;;;7.17;75.89
43553;BME280;29153;42.696;23.218;2023-04-08T06:51:53;94598.83;;;7.21;75.14
43553;BME280;29153;42.696;23.218;2023-04-08T06:54:30;94606.95;;;7.14;74.63
43553;BME280;29153;42.696;23.218;2023-04-08T06:56:57;94607.70;;;7.12;74.61
43553;BME280;29153;42.696;23.218;2023-04-08T06:59:25;94611.70;;;7.17;74.68
43553;BME280;29153;42.696;23.218;2023-04-08T07:01:52;94611.25;;;7.25;73.69
43553;BME280;29153;42.696;23.218;2023-04-08T07:04:20;94603.75;;;7.12;73.82
43553;BME280;29153;42.696;23.218;2023-04-08T07:06:48;94605.29;;;7.38;74.99
43553;BME280;29153;42.696;23.218;2023-04-08T07:09:16;94602.13;;;7.36;72.85
43553;BME280;29153;42.696;23.218;2023-04-08T07:11:44;94609.94;;;7.25;72.95
43553;BME280;29153;42.696;23.218;2023-04-08T07:14:11;94607.80;;;7.54;73.97
43553;BME280;29153;42.696;23.218;2023-04-08T07:16:39;94608.96;;;7.68;73.29
43553;BME280;29153;42.696;23.218;2023-04-08T07:19:07;94612.39;;;7.69;72.38
43553;BME280;29153;42.696;23.218;2023-04-08T07:21:34;94622.94;;;7.69;71.14
43553;BME280;29153;42.696;23.218;2023-04-08T07:24:02;94611.37;;;7.75;72.23
43553;BME280;29153;42.696;23.218;2023-04-08T07:26:29;94620.30;;;7.69;72.81
43553;BME280;29153;42.696;23.218;2023-04-08T07:28:57;94617.16;;;7.74;73.46
43553;BME280;29153;42.696;23.218;2023-04-08T07:31:24;94627.50;;;7.78;71.40
43553;BME280;29153;42.696;23.218;2023-04-08T07:33:52;94630.91;;;7.79;71.81
43553;BME280;29153;42.696;23.218;2023-04-08T07:36:20;94624.67;;;7.93;71.49
43553;BME280;29153;42.696;23.218;2023-04-08T07:38:48;94627.27;;;7.88;71.24
43553;BME280;29153;42.696;23.218;2023-04-08T07:41:15;94633.70;;;7.99;70.81
43553;BME280;29153;42.696;23.218;2023-04-08T07:43:43;94633.22;;;8.07;70.53
43553;BME280;29153;42.696;23.218;2023-04-08T07:46:11;94636.77;;;8.26;69.66
43553;BME280;29153;42.696;23.218;2023-04-08T07:48:38;94637.02;;;8.27;69.21
43553;BME280;29153;42.696;23.218;2023-04-08T07:51:08;94643.67;;;8.32;69.14
43553;BME280;29153;42.696;23.218;2023-04-08T07:53:35;94643.46;;;8.43;68.50
43553;BME280;29153;42.696;23.218;2023-04-08T07:56:09;94652.18;;;8.44;68.47
43553;BME280;29153;42.696;23.218;2023-04-08T07:58:32;94654.11;;;8.58;68.60
43553;BME280;29153;42.696;23.218;2023-04-08T08:01:00;94655.48;;;8.71;67.85
43553;BME280;29153;42.696;23.218;2023-04-08T08:03:27;94657.03;;;8.62;68.13
43553;BME280;29153;42.696;23.218;2023-04-08T08:05:55;94654.33;;;8.47;68.63
43553;BME280;29153;42.696;23.218;2023-04-08T08:08:23;94646.44;;;8.57;68.25
43553;BME280;29153;42.696;23.218;2023-04-08T08:10:50;94650.72;;;8.73;67.61
43553;BME280;29153;42.696;23.218;2023-04-08T08:13:18;94648.66;;;8.80;68.79
43553;BME280;29153;42.696;23.218;2023-04-08T08:15:51;94658.37;;;8.69;67.11
43553;BME280;29153;42.696;23.218;2023-04-08T08:18:19;94656.06;;;8.81;67.93
43553;BME280;29153;42.696;23.218;2023-04-08T08:20:46;94657.33;;;8.68;68.11
43553;BME280;29153;42.696;23.218;2023-04-08T08:23:14;94651.22;;;8.65;68.18
43553;BME280;29153;42.696;23.218;2023-04-08T08:25:42;94652.67;;;9.03;67.44
43553;BME280;29153;42.696;23.218;2023-04-08T08:28:09;94652.77;;;9.46;67.26
43553;BME280;29153;42.696;23.218;2023-04-08T08:30:37;94650.37;;;9.42;68.31
43553;BME280;29153;42.696;23.218;2023-04-08T08:33:05;94661.45;;;9.19;65.82
43553;BME280;29153;42.696;23.218;2023-04-08T08:35:33;94656.75;;;9.56;67.41
43553;BME280;29153;42.696;23.218;2023-04-08T08:38:00;94650.67;;;10.01;67.32
43553;BME280;29153;42.696;23.218;2023-04-08T08:40:28;94658.34;;;10.25;63.28
43553;BME280;29153;42.696;23.218;2023-04-08T08:42:56;94658.34;;;10.25;63.28
43553;BME280;29153;42.696;23.218;2023-04-08T08:45:23;94664.70;;;10.09;62.57
43553;BME280;29153;42.696;23.218;2023-04-08T08:47:51;94654.65;;;10.16;63.57
43553;BME280;29153;42.696;23.218;2023-04-08T08:50:19;94647.70;;;10.40;65.23
43553;BME280;29153;42.696;23.218;2023-04-08T08:52:52;94655.34;;;10.60;64.12
43553;BME280;29153;42.696;23.218;2023-04-08T08:55:21;94653.97;;;10.77;63.76
43553;BME280;29153;42.696;23.218;2023-04-08T08:57:50;94648.86;;;10.93;61.05
43553;BME280;29153;42.696;23.218;2023-04-08T09:00:18;94653.05;;;11.00;61.71
43553;BME280;29153;42.696;23.218;2023-04-08T09:02:45;94657.59;;;10.91;60.36
43553;BME280;29153;42.696;23.218;2023-04-08T09:05:13;94657.64;;;10.86;61.69
43553;BME280;29153;42.696;23.218;2023-04-08T09:07:41;94649.55;;;11.14;62.44
43553;BME280;29153;42.696;23.218;2023-04-08T09:10:08;94658.12;;;10.99;62.66
43553;BME280;29153;42.696;23.218;2023-04-08T09:12:52;94658.34;;;11.07;65.20
43553;BME280;29153;42.696;23.218;2023-04-08T09:15:08;94657.75;;;11.20;62.47
43553;BME280;29153;42.696;23.218;2023-04-08T09:17:39;94653.97;;;11.70;62.79
43553;BME280;29153;42.696;23.218;2023-04-08T09:20:11;94653.97;;;11.70;62.79
43553;BME280;29153;42.696;23.218;2023-04-08T09:23:00;94650.05;;;12.02;59.90
43553;BME280;29153;42.696;23.218;2023-04-08T09:25:30;94650.05;;;12.02;59.90
43553;BME280;29153;42.696;23.218;2023-04-08T09:27:58;94654.64;;;12.20;58.25
43553;BME280;29153;42.696;23.218;2023-04-08T09:30:28;94648.50;;;12.51;59.43
43553;BME280;29153;42.696;23.218;2023-04-08T09:32:56;94645.03;;;12.26;56.70
43553;BME280;29153;42.696;23.218;2023-04-08T09:35:24;94645.44;;;11.78;57.74
43553;BME280;29153;42.696;23.218;2023-04-08T09:37:52;94645.69;;;12.13;58.34
43553;BME280;29153;42.696;23.218;2023-04-08T09:40:19;94637.42;;;12.44;57.28
43553;BME280;29153;42.696;23.218;2023-04-08T09:42:50;94634.89;;;12.57;59.26
43553;BME280;29153;42.696;23.218;2023-04-08T09:45:19;94630.64;;;12.56;56.12
43553;BME280;29153;42.696;23.218;2023-04-08T09:50:22;94623.23;;;12.98;55.35
43553;BME280;29153;42.696;23.218;2023-04-08T09:52:52;94626.04;;;12.41;55.67
43553;BME280;29153;42.696;23.218;2023-04-08T09:55:24;94613.56;;;12.12;60.37
43553;BME280;29153;42.696;23.218;2023-04-08T09:58:02;94621.08;;;12.55;58.09
43553;BME280;29153;42.696;23.218;2023-04-08T10:00:33;94622.41;;;12.31;55.37
43553;BME280;29153;42.696;23.218;2023-04-08T10:03:15;94610.20;;;12.28;60.20
43553;BME280;29153;42.696;23.218;2023-04-08T10:05:43;94616.60;;;12.53;57.35
43553;BME280;29153;42.696;23.218;2023-04-08T10:08:13;94601.88;;;12.37;57.77
43553;BME280;29153;42.696;23.218;2023-04-08T10:10:42;94602.13;;;12.41;57.82
43553;BME280;29153;42.696;23.218;2023-04-08T10:13:10;94601.65;;;12.36;58.15
43553;BME280;29153;42.696;23.218;2023-04-08T10:15:37;94596.66;;;11.69;56.44
43553;BME280;29153;42.696;23.218;2023-04-08T10:20:41;94601.92;;;11.79;56.34
43553;BME280;29153;42.696;23.218;2023-04-08T10:23:16;94596.57;;;11.84;59.19
43553;BME280;29153;42.696;23.218;2023-04-08T10:25:45;94596.38;;;11.73;57.82
43553;BME280;29153;42.696;23.218;2023-04-08T10:30:50;94593.41;;;12.09;57.61
43553;BME280;29153;42.696;23.218;2023-04-08T10:33:32;94593.69;;;11.78;57.44
43553;BME280;29153;42.696;23.218;2023-04-08T10:36:10;94588.41;;;12.31;58.18
43553;BME280;29153;42.696;23.218;2023-04-08T10:38:39;94582.87;;;12.72;56.42
43553;BME280;29153;42.696;23.218;2023-04-08T10:41:12;94573.00;;;12.75;56.79
43553;BME280;29153;42.696;23.218;2023-04-08T10:43:41;94575.64;;;13.18;57.64
43553;BME280;29153;42.696;23.218;2023-04-08T10:46:10;94575.84;;;13.03;54.79
43553;BME280;29153;42.696;23.218;2023-04-08T10:48:37;94571.77;;;13.29;55.20
43553;BME280;29153;42.696;23.218;2023-04-08T10:51:05;94566.27;;;13.23;56.68
43553;BME280;29153;42.696;23.218;2023-04-08T10:53:34;94562.96;;;13.10;53.54
43553;BME280;29153;42.696;23.218;2023-04-08T10:56:08;94568.94;;;12.62;54.38
43553;BME280;29153;42.696;23.218;2023-04-08T10:58:48;94565.27;;;12.98;57.37
43553;BME280;29153;42.696;23.218;2023-04-08T11:01:16;94567.92;;;12.98;54.98
43553;BME280;29153;42.696;23.218;2023-04-08T11:03:43;94561.95;;;13.06;55.05
43553;BME280;29153;42.696;23.218;2023-04-08T11:06:11;94554.81;;;12.64;56.28
43553;BME280;29153;42.696;23.218;2023-04-08T11:08:39;94539.40;;;12.63;57.46
43553;BME280;29153;42.696;23.218;2023-04-08T11:11:07;94539.40;;;12.63;57.46
43553;BME280;29153;42.696;23.218;2023-04-08T11:13:40;94541.34;;;12.79;55.92
43553;BME280;29153;42.696;23.218;2023-04-08T11:16:08;94542.38;;;12.59;54.28
43553;BME280;29153;42.696;23.218;2023-04-08T11:18:39;94539.34;;;13.08;57.18
43553;BME280;29153;42.696;23.218;2023-04-08T11:21:10;94539.34;;;13.08;57.18
43553;BME280;29153;42.696;23.218;2023-04-08T11:23:38;94527.91;;;12.49;55.38
43553;BME280;29153;42.696;23.218;2023-04-08T11:26:06;94527.91;;;12.49;55.38
43553;BME280;29153;42.696;23.218;2023-04-08T11:28:34;94528.81;;;12.61;55.32
43553;BME280;29153;42.696;23.218;2023-04-08T11:31:02;94533.86;;;12.39;55.30
43553;BME280;29153;42.696;23.218;2023-04-08T11:33:33;94516.55;;;12.41;57.38
43553;BME280;29153;42.696;23.218;2023-04-08T11:36:02;94521.44;;;12.55;54.05
43553;BME280;29153;42.696;23.218;2023-04-08T11:38:37;94522.88;;;12.66;54.94
43553;BME280;29153;42.696;23.218;2023-04-08T11:41:04;94523.66;;;12.69;56.74
43553;BME280;29153;42.696;23.218;2023-04-08T11:43:31;94508.56;;;12.65;56.10
43553;BME280;29153;42.696;23.218;2023-04-08T11:46:07;94518.03;;;12.71;54.47
43553;BME280;29153;42.696;23.218;2023-04-08T11:48:36;94519.04;;;12.75;55.23
43553;BME280;29153;42.696;23.218;2023-04-08T11:51:05;94509.72;;;12.77;54.44
43553;BME280;29153;42.696;23.218;2023-04-08T11:53:37;94503.58;;;12.40;53.04
43553;BME280;29153;42.696;23.218;2023-04-08T11:56:18;94503.58;;;12.40;53.04
43553;BME280;29153;42.696;23.218;2023-04-08T11:58:47;94500.70;;;12.36;53.95
43553;BME280;29153;42.696;23.218;2023-04-08T12:01:14;94504.69;;;12.36;56.39
43553;BME280;29153;42.696;23.218;2023-04-08T12:03:58;94509.91;;;12.41;54.38
43553;BME280;29153;42.696;23.218;2023-04-08T12:06:27;94515.63;;;12.32;53.29
43553;BME280;29153;42.696;23.218;2023-04-08T12:08:55;94497.78;;;12.14;52.28
43553;BME280;29153;42.696;23.218;2023-04-08T12:11:23;94502.19;;;12.23;54.02
43553;BME280;29153;42.696;23.218;2023-04-08T12:13:51;94503.63;;;12.11;54.85
43553;BME280;29153;42.696;23.218;2023-04-08T12:16:19;94492.78;;;12.10;57.01
43553;BME280;29153;42.696;23.218;2023-04-08T12:18:46;94499.47;;;12.05;55.55
43553;BME280;29153;42.696;23.218;2023-04-08T12:21:15;94495.84;;;11.96;54.03
43553;BME280;29153;42.696;23.218;2023-04-08T12:23:43;94494.75;;;11.70;54.96
43553;BME280;29153;42.696;23.218;2023-04-08T12:26:10;94494.75;;;11.70;54.96
43553;BME280;29153;42.696;23.218;2023-04-08T12:28:38;94490.19;;;11.78;54.14
43553;BME280;29153;42.696;23.218;2023-04-08T12:31:06;94486.30;;;11.95;54.77
43553;BME280;29153;42.696;23.218;2023-04-08T12:33:34;94484.08;;;11.80;54.34
43553;BME280;29153;42.696;23.218;2023-04-08T12:36:01;94486.85;;;11.34;55.38
43553;BME280;29153;42.696;23.218;2023-04-08T12:38:29;94472.71;;;11.46;55.98
43553;BME280;29153;42.696;23.218;2023-04-08T12:40:58;94472.53;;;11.93;54.68
43553;BME280;29153;42.696;23.218;2023-04-08T12:43:26;94481.58;;;12.13;54.26
43553;BME280;29153;42.696;23.218;2023-04-08T12:45:54;94482.80;;;12.23;53.65
43553;BME280;29153;42.696;23.218;2023-04-08T12:48:21;94482.80;;;12.23;53.27
43553;BME280;29153;42.696;23.218;2023-04-08T12:50:49;94488.74;;;12.15;53.84
43553;BME280;29153;42.696;23.218;2023-04-08T12:53:17;94492.98;;;11.90;55.08
43553;BME280;29153;42.696;23.218;2023-04-08T12:55:46;94480.80;;;11.89;59.79
43553;BME280;29153;42.696;23.218;2023-04-08T12:58:13;94483.81;;;11.79;62.17
43553;BME280;29153;42.696;23.218;2023-04-08T13:00:41;94476.70;;;11.72;62.76
43553;BME280;29153;42.696;23.218;2023-04-08T13:03:12;94476.98;;;11.68;62.24
43553;BME280;29153;42.696;23.218;2023-04-08T13:05:41;94476.70;;;11.72;63.29
43553;BME280;29153;42.696;23.218;2023-04-08T13:08:09;94476.77;;;11.94;66.31
43553;BME280;29153;42.696;23.218;2023-04-08T13:10:41;94472.24;;;12.15;58.08
43553;BME280;29153;42.696;23.218;2023-04-08T13:13:09;94472.24;;;12.15;58.08
43553;BME280;29153;42.696;23.218;2023-04-08T13:15:38;94480.63;;;12.04;57.45